Kivalina Airport Kivalina US
ICAO: PAVL
IATA:
Category: Medium
Scheduled Services:

Elevation: 13 ft
TransAlt. 18000 ft.

Airport Communications:
ANCHORAGE CNTR:119.2
ASOS:135.8
CTAF/UNICOM:122.8
KOTZEBUE RDO:122.55

PAVL Zoom In..

If you have problems with the map follow the link
https://www.worldairports.se/pages/airport.php?
ICAO=PAVL

Runways:

(A) RW 12 length 3000 ft width 60 ft
---- / hdg 122

(B) RW 30 length 3000 ft width 60 ft
---- / hdg 302

Location; PAVL
Day. 19 / Time. 13.53 Zulu
* Altimeter: 29.50
* Temperature: -01° c. -30.2°f.
* Wind from: 030° Speed 09 kn.
Dewpoint: -02° c.
Visibility: 3 Statute Miles.
Clouds: Overcast 2100 ft.
Conditions: Light Snow.Conditions: Mist.

PAVL 191353Z AUTO 03009KT 3SM -SN BR OVC021 M01/M02 A2950 RMK AO2 SLP988 P0000 T10111017 TSNO $


Wind From 030°
Speed 09 kn.

 
 
jpsmedia.com for Web Design worldairports.se 2018   terms of use